sensor_id;sensor_type;location;lat;lon;timestamp;P1;durP1;ratioP1;P2;durP2;ratioP2
26578;SDS011;14227;47.674;19.320;2023-09-18T00:00:45;55.08;;;29.95;;
26578;SDS011;14227;47.674;19.320;2023-09-18T00:03:15;126.38;;;39.97;;
26578;SDS011;14227;47.674;19.320;2023-09-18T00:05:42;46.05;;;28.52;;
26578;SDS011;14227;47.674;19.320;2023-09-18T00:08:08;127.68;;;41.97;;
26578;SDS011;14227;47.674;19.320;2023-09-18T00:10:34;48.17;;;29.48;;
26578;SDS011;14227;47.674;19.320;2023-09-18T00:13:00;49.15;;;27.45;;
26578;SDS011;14227;47.674;19.320;2023-09-18T00:15:26;99.68;;;39.80;;
26578;SDS011;14227;47.674;19.320;2023-09-18T00:17:52;56.72;;;29.33;;
26578;SDS011;14227;47.674;19.320;2023-09-18T00:20:17;45.95;;;25.75;;
26578;SDS011;14227;47.674;19.320;2023-09-18T00:22:43;87.78;;;40.72;;
26578;SDS011;14227;47.674;19.320;2023-09-18T00:25:09;63.10;;;32.20;;
26578;SDS011;14227;47.674;19.320;2023-09-18T00:27:35;87.53;;;40.50;;
26578;SDS011;14227;47.674;19.320;2023-09-18T00:30:01;52.83;;;32.20;;
26578;SDS011;14227;47.674;19.320;2023-09-18T00:32:28;110.10;;;42.70;;
26578;SDS011;14227;47.674;19.320;2023-09-18T00:34:54;90.50;;;36.88;;
26578;SDS011;14227;47.674;19.320;2023-09-18T00:37:20;114.25;;;41.97;;
26578;SDS011;14227;47.674;19.320;2023-09-18T00:39:46;126.63;;;43.88;;
26578;SDS011;14227;47.674;19.320;2023-09-18T00:42:11;91.00;;;41.50;;
26578;SDS011;14227;47.674;19.320;2023-09-18T00:44:39;75.03;;;33.30;;
26578;SDS011;14227;47.674;19.320;2023-09-18T00:47:06;129.32;;;43.33;;
26578;SDS011;14227;47.674;19.320;2023-09-18T00:49:33;103.05;;;38.97;;
26578;SDS011;14227;47.674;19.320;2023-09-18T00:52:01;74.40;;;34.03;;
26578;SDS011;14227;47.674;19.320;2023-09-18T00:54:28;61.17;;;28.05;;
26578;SDS011;14227;47.674;19.320;2023-09-18T00:56:54;96.53;;;37.88;;
26578;SDS011;14227;47.674;19.320;2023-09-18T00:59:20;67.82;;;35.70;;
26578;SDS011;14227;47.674;19.320;2023-09-18T01:01:46;56.67;;;32.78;;
26578;SDS011;14227;47.674;19.320;2023-09-18T01:04:16;94.88;;;38.20;;
26578;SDS011;14227;47.674;19.320;2023-09-18T01:06:42;54.08;;;28.88;;
26578;SDS011;14227;47.674;19.320;2023-09-18T01:09:08;55.28;;;28.30;;
26578;SDS011;14227;47.674;19.320;2023-09-18T01:11:54;70.38;;;35.58;;
26578;SDS011;14227;47.674;19.320;2023-09-18T01:14:39;76.82;;;36.58;;
26578;SDS011;14227;47.674;19.320;2023-09-18T01:17:06;72.78;;;34.47;;
26578;SDS011;14227;47.674;19.320;2023-09-18T01:19:42;98.05;;;41.35;;
26578;SDS011;14227;47.674;19.320;2023-09-18T01:22:18;83.82;;;38.38;;
26578;SDS011;14227;47.674;19.320;2023-09-18T01:24:45;139.63;;;45.83;;
26578;SDS011;14227;47.674;19.320;2023-09-18T01:27:17;57.78;;;28.08;;
26578;SDS011;14227;47.674;19.320;2023-09-18T01:29:44;59.58;;;31.48;;
26578;SDS011;14227;47.674;19.320;2023-09-18T01:32:10;71.72;;;33.17;;
26578;SDS011;14227;47.674;19.320;2023-09-18T01:34:46;85.40;;;36.72;;
26578;SDS011;14227;47.674;19.320;2023-09-18T01:37:14;56.08;;;30.67;;
26578;SDS011;14227;47.674;19.320;2023-09-18T01:39:42;47.95;;;26.98;;
26578;SDS011;14227;47.674;19.320;2023-09-18T01:42:08;69.93;;;33.13;;
26578;SDS011;14227;47.674;19.320;2023-09-18T01:44:36;71.55;;;36.67;;
26578;SDS011;14227;47.674;19.320;2023-09-18T01:47:09;60.88;;;31.35;;
26578;SDS011;14227;47.674;19.320;2023-09-18T01:49:38;71.05;;;33.47;;
26578;SDS011;14227;47.674;19.320;2023-09-18T01:52:05;63.03;;;29.17;;
26578;SDS011;14227;47.674;19.320;2023-09-18T01:54:32;87.10;;;37.35;;
26578;SDS011;14227;47.674;19.320;2023-09-18T01:56:58;52.28;;;25.75;;
26578;SDS011;14227;47.674;19.320;2023-09-18T01:59:24;74.55;;;33.30;;
26578;SDS011;14227;47.674;19.320;2023-09-18T02:01:51;64.53;;;30.00;;
26578;SDS011;14227;47.674;19.320;2023-09-18T02:04:17;49.47;;;28.77;;
26578;SDS011;14227;47.674;19.320;2023-09-18T02:06:43;72.03;;;32.00;;
26578;SDS011;14227;47.674;19.320;2023-09-18T02:09:09;71.45;;;30.50;;
26578;SDS011;14227;47.674;19.320;2023-09-18T02:11:39;79.03;;;33.30;;
26578;SDS011;14227;47.674;19.320;2023-09-18T02:14:06;74.60;;;32.40;;
26578;SDS011;14227;47.674;19.320;2023-09-18T02:16:34;67.68;;;31.30;;
26578;SDS011;14227;47.674;19.320;2023-09-18T02:19:04;83.18;;;35.13;;
26578;SDS011;14227;47.674;19.320;2023-09-18T02:21:30;62.25;;;31.50;;
26578;SDS011;14227;47.674;19.320;2023-09-18T02:23:56;65.43;;;30.67;;
26578;SDS011;14227;47.674;19.320;2023-09-18T02:26:23;55.80;;;29.10;;
26578;SDS011;14227;47.674;19.320;2023-09-18T02:28:51;61.22;;;30.00;;
26578;SDS011;14227;47.674;19.320;2023-09-18T02:31:18;53.90;;;27.63;;
26578;SDS011;14227;47.674;19.320;2023-09-18T02:33:44;49.00;;;26.98;;
26578;SDS011;14227;47.674;19.320;2023-09-18T02:36:09;70.97;;;33.85;;
26578;SDS011;14227;47.674;19.320;2023-09-18T02:38:35;68.53;;;32.13;;
26578;SDS011;14227;47.674;19.320;2023-09-18T02:41:01;98.20;;;37.78;;
26578;SDS011;14227;47.674;19.320;2023-09-18T02:43:27;70.72;;;30.80;;
26578;SDS011;14227;47.674;19.320;2023-09-18T02:45:52;59.25;;;30.35;;
26578;SDS011;14227;47.674;19.320;2023-09-18T02:48:18;111.32;;;40.95;;
26578;SDS011;14227;47.674;19.320;2023-09-18T02:50:44;45.22;;;25.10;;
26578;SDS011;14227;47.674;19.320;2023-09-18T02:53:22;96.03;;;37.85;;
26578;SDS011;14227;47.674;19.320;2023-09-18T02:55:52;73.35;;;30.63;;
26578;SDS011;14227;47.674;19.320;2023-09-18T02:58:19;52.42;;;28.25;;
26578;SDS011;14227;47.674;19.320;2023-09-18T03:00:46;80.20;;;33.85;;
26578;SDS011;14227;47.674;19.320;2023-09-18T03:03:13;97.45;;;37.40;;
26578;SDS011;14227;47.674;19.320;2023-09-18T03:05:40;103.22;;;40.78;;
26578;SDS011;14227;47.674;19.320;2023-09-18T03:08:07;74.10;;;32.58;;
26578;SDS011;14227;47.674;19.320;2023-09-18T03:10:36;81.38;;;36.22;;
26578;SDS011;14227;47.674;19.320;2023-09-18T03:13:08;92.90;;;39.83;;
26578;SDS011;14227;47.674;19.320;2023-09-18T03:15:34;112.10;;;41.75;;
26578;SDS011;14227;47.674;19.320;2023-09-18T03:18:01;86.03;;;39.25;;
26578;SDS011;14227;47.674;19.320;2023-09-18T03:20:28;65.63;;;31.05;;
26578;SDS011;14227;47.674;19.320;2023-09-18T03:22:54;49.47;;;27.38;;
26578;SDS011;14227;47.674;19.320;2023-09-18T03:25:21;79.53;;;31.98;;
26578;SDS011;14227;47.674;19.320;2023-09-18T03:27:48;69.43;;;31.38;;
26578;SDS011;14227;47.674;19.320;2023-09-18T03:30:14;89.35;;;35.05;;
26578;SDS011;14227;47.674;19.320;2023-09-18T03:32:43;81.40;;;35.35;;
26578;SDS011;14227;47.674;19.320;2023-09-18T03:35:10;69.30;;;32.95;;
26578;SDS011;14227;47.674;19.320;2023-09-18T03:37:52;70.70;;;29.88;;
26578;SDS011;14227;47.674;19.320;2023-09-18T03:40:21;84.65;;;36.00;;
26578;SDS011;14227;47.674;19.320;2023-09-18T03:42:47;68.95;;;31.80;;
26578;SDS011;14227;47.674;19.320;2023-09-18T03:45:14;89.03;;;35.47;;
26578;SDS011;14227;47.674;19.320;2023-09-18T03:47:41;56.90;;;26.67;;
26578;SDS011;14227;47.674;19.320;2023-09-18T03:50:07;85.05;;;35.13;;
26578;SDS011;14227;47.674;19.320;2023-09-18T03:52:34;84.53;;;34.28;;
26578;SDS011;14227;47.674;19.320;2023-09-18T03:55:00;93.95;;;33.78;;
26578;SDS011;14227;47.674;19.320;2023-09-18T03:57:26;75.05;;;33.33;;
26578;SDS011;14227;47.674;19.320;2023-09-18T03:59:51;65.97;;;33.00;;
26578;SDS011;14227;47.674;19.320;2023-09-18T04:02:17;79.78;;;34.03;;
26578;SDS011;14227;47.674;19.320;2023-09-18T04:04:43;73.10;;;32.83;;
26578;SDS011;14227;47.674;19.320;2023-09-18T04:07:08;76.00;;;35.50;;
26578;SDS011;14227;47.674;19.320;2023-09-18T04:09:35;80.43;;;34.92;;
26578;SDS011;14227;47.674;19.320;2023-09-18T04:12:01;91.35;;;34.28;;
26578;SDS011;14227;47.674;19.320;2023-09-18T04:14:27;78.15;;;31.25;;
26578;SDS011;14227;47.674;19.320;2023-09-18T04:16:53;99.00;;;38.38;;
26578;SDS011;14227;47.674;19.320;2023-09-18T04:19:19;86.95;;;34.10;;
26578;SDS011;14227;47.674;19.320;2023-09-18T04:21:44;102.22;;;38.47;;
26578;SDS011;14227;47.674;19.320;2023-09-18T04:24:10;94.63;;;37.38;;
26578;SDS011;14227;47.674;19.320;2023-09-18T04:26:36;100.03;;;36.80;;
26578;SDS011;14227;47.674;19.320;2023-09-18T04:29:03;78.60;;;32.83;;
26578;SDS011;14227;47.674;19.320;2023-09-18T04:31:28;155.43;;;48.05;;
26578;SDS011;14227;47.674;19.320;2023-09-18T04:33:55;95.55;;;38.70;;
26578;SDS011;14227;47.674;19.320;2023-09-18T04:36:20;85.15;;;34.05;;
26578;SDS011;14227;47.674;19.320;2023-09-18T04:38:46;95.18;;;36.42;;
26578;SDS011;14227;47.674;19.320;2023-09-18T04:41:13;127.60;;;39.88;;
26578;SDS011;14227;47.674;19.320;2023-09-18T04:43:40;77.28;;;34.92;;
26578;SDS011;14227;47.674;19.320;2023-09-18T04:46:07;68.95;;;30.60;;
26578;SDS011;14227;47.674;19.320;2023-09-18T04:48:33;129.77;;;40.20;;
26578;SDS011;14227;47.674;19.320;2023-09-18T04:50:59;126.93;;;36.60;;
26578;SDS011;14227;47.674;19.320;2023-09-18T04:53:26;125.25;;;38.47;;
26578;SDS011;14227;47.674;19.320;2023-09-18T04:55:52;80.45;;;30.17;;
26578;SDS011;14227;47.674;19.320;2023-09-18T04:58:18;132.35;;;35.85;;
26578;SDS011;14227;47.674;19.320;2023-09-18T05:00:44;85.75;;;30.60;;
26578;SDS011;14227;47.674;19.320;2023-09-18T05:03:11;135.10;;;38.00;;
26578;SDS011;14227;47.674;19.320;2023-09-18T05:05:37;98.05;;;34.67;;
26578;SDS011;14227;47.674;19.320;2023-09-18T05:08:06;91.38;;;32.28;;
26578;SDS011;14227;47.674;19.320;2023-09-18T05:10:35;100.55;;;37.63;;
26578;SDS011;14227;47.674;19.320;2023-09-18T05:13:01;87.63;;;35.63;;
26578;SDS011;14227;47.674;19.320;2023-09-18T05:15:27;74.93;;;31.42;;
26578;SDS011;14227;47.674;19.320;2023-09-18T05:17:56;91.32;;;36.88;;
26578;SDS011;14227;47.674;19.320;2023-09-18T05:20:24;55.45;;;26.98;;
26578;SDS011;14227;47.674;19.320;2023-09-18T05:22:51;66.93;;;34.40;;
26578;SDS011;14227;47.674;19.320;2023-09-18T05:25:18;72.35;;;34.25;;
26578;SDS011;14227;47.674;19.320;2023-09-18T05:27:44;77.47;;;39.13;;
26578;SDS011;14227;47.674;19.320;2023-09-18T05:30:19;100.00;;;42.28;;
26578;SDS011;14227;47.674;19.320;2023-09-18T05:32:49;83.05;;;40.75;;
26578;SDS011;14227;47.674;19.320;2023-09-18T05:35:14;93.38;;;39.30;;
26578;SDS011;14227;47.674;19.320;2023-09-18T05:37:41;82.13;;;41.00;;
26578;SDS011;14227;47.674;19.320;2023-09-18T05:40:08;83.20;;;38.63;;
26578;SDS011;14227;47.674;19.320;2023-09-18T05:42:35;75.43;;;40.38;;
26578;SDS011;14227;47.674;19.320;2023-09-18T05:45:08;69.18;;;39.22;;
26578;SDS011;14227;47.674;19.320;2023-09-18T05:47:34;75.03;;;38.13;;
26578;SDS011;14227;47.674;19.320;2023-09-18T05:50:04;58.30;;;36.15;;
26578;SDS011;14227;47.674;19.320;2023-09-18T05:52:41;62.05;;;35.92;;
26578;SDS011;14227;47.674;19.320;2023-09-18T05:55:07;55.25;;;33.20;;
26578;SDS011;14227;47.674;19.320;2023-09-18T05:57:33;53.67;;;32.70;;
26578;SDS011;14227;47.674;19.320;2023-09-18T05:59:59;44.38;;;28.60;;
26578;SDS011;14227;47.674;19.320;2023-09-18T06:02:25;44.35;;;28.42;;
26578;SDS011;14227;47.674;19.320;2023-09-18T06:04:58;35.00;;;24.23;;
26578;SDS011;14227;47.674;19.320;2023-09-18T06:07:27;32.28;;;21.45;;
26578;SDS011;14227;47.674;19.320;2023-09-18T06:09:53;29.20;;;20.23;;
26578;SDS011;14227;47.674;19.320;2023-09-18T06:12:19;28.98;;;19.75;;
26578;SDS011;14227;47.674;19.320;2023-09-18T06:14:46;23.83;;;17.77;;
26578;SDS011;14227;47.674;19.320;2023-09-18T06:17:13;30.75;;;19.77;;
26578;SDS011;14227;47.674;19.320;2023-09-18T06:19:40;25.42;;;17.85;;
26578;SDS011;14227;47.674;19.320;2023-09-18T06:22:06;31.25;;;16.83;;
26578;SDS011;14227;47.674;19.320;2023-09-18T06:24:32;25.60;;;18.23;;
26578;SDS011;14227;47.674;19.320;2023-09-18T06:26:59;21.65;;;16.77;;
26578;SDS011;14227;47.674;19.320;2023-09-18T06:29:24;22.58;;;16.60;;
26578;SDS011;14227;47.674;19.320;2023-09-18T06:31:50;25.17;;;19.92;;
26578;SDS011;14227;47.674;19.320;2023-09-18T06:34:16;22.85;;;15.18;;
26578;SDS011;14227;47.674;19.320;2023-09-18T06:36:42;22.58;;;16.00;;
26578;SDS011;14227;47.674;19.320;2023-09-18T06:39:07;21.02;;;14.85;;
26578;SDS011;14227;47.674;19.320;2023-09-18T06:41:33;19.63;;;14.88;;
26578;SDS011;14227;47.674;19.320;2023-09-18T06:43:59;37.05;;;29.90;;
26578;SDS011;14227;47.674;19.320;2023-09-18T06:46:28;17.60;;;12.75;;
26578;SDS011;14227;47.674;19.320;2023-09-18T06:48:57;20.70;;;14.23;;
26578;SDS011;14227;47.674;19.320;2023-09-18T06:51:25;33.92;;;24.15;;
26578;SDS011;14227;47.674;19.320;2023-09-18T06:53:51;22.02;;;17.50;;
26578;SDS011;14227;47.674;19.320;2023-09-18T06:56:16;20.55;;;13.15;;
26578;SDS011;14227;47.674;19.320;2023-09-18T06:58:42;29.30;;;18.80;;
26578;SDS011;14227;47.674;19.320;2023-09-18T07:01:08;47.50;;;31.38;;
26578;SDS011;14227;47.674;19.320;2023-09-18T07:03:34;16.38;;;12.32;;
26578;SDS011;14227;47.674;19.320;2023-09-18T07:06:02;18.05;;;11.65;;
26578;SDS011;14227;47.674;19.320;2023-09-18T07:08:33;14.57;;;11.52;;
26578;SDS011;14227;47.674;19.320;2023-09-18T07:10:59;16.92;;;11.88;;
26578;SDS011;14227;47.674;19.320;2023-09-18T07:13:25;19.35;;;12.23;;
26578;SDS011;14227;47.674;19.320;2023-09-18T07:15:51;31.05;;;11.38;;
26578;SDS011;14227;47.674;19.320;2023-09-18T07:18:16;14.52;;;12.27;;
26578;SDS011;14227;47.674;19.320;2023-09-18T07:20:45;16.38;;;10.82;;
26578;SDS011;14227;47.674;19.320;2023-09-18T07:23:11;17.13;;;10.30;;
26578;SDS011;14227;47.674;19.320;2023-09-18T07:25:37;16.10;;;11.10;;
26578;SDS011;14227;47.674;19.320;2023-09-18T07:28:05;18.05;;;10.07;;
26578;SDS011;14227;47.674;19.320;2023-09-18T07:30:31;15.18;;;10.13;;
26578;SDS011;14227;47.674;19.320;2023-09-18T07:32:58;18.10;;;9.85;;
26578;SDS011;14227;47.674;19.320;2023-09-18T07:35:25;14.60;;;9.55;;
26578;SDS011;14227;47.674;19.320;2023-09-18T07:37:51;12.15;;;9.77;;
26578;SDS011;14227;47.674;19.320;2023-09-18T07:40:17;15.40;;;10.27;;
26578;SDS011;14227;47.674;19.320;2023-09-18T07:42:42;14.13;;;8.98;;
26578;SDS011;14227;47.674;19.320;2023-09-18T07:45:09;14.07;;;9.05;;
26578;SDS011;14227;47.674;19.320;2023-09-18T07:47:35;10.25;;;8.75;;
26578;SDS011;14227;47.674;19.320;2023-09-18T07:50:01;14.45;;;9.70;;
26578;SDS011;14227;47.674;19.320;2023-09-18T07:52:27;15.63;;;9.48;;
26578;SDS011;14227;47.674;19.320;2023-09-18T07:54:53;13.30;;;8.65;;
26578;SDS011;14227;47.674;19.320;2023-09-18T07:57:19;15.52;;;9.75;;
26578;SDS011;14227;47.674;19.320;2023-09-18T07:59:45;13.95;;;9.38;;
26578;SDS011;14227;47.674;19.320;2023-09-18T08:02:11;22.90;;;10.10;;
26578;SDS011;14227;47.674;19.320;2023-09-18T08:04:37;15.15;;;9.13;;
26578;SDS011;14227;47.674;19.320;2023-09-18T08:07:03;12.15;;;8.82;;
26578;SDS011;14227;47.674;19.320;2023-09-18T08:09:32;14.88;;;8.43;;
26578;SDS011;14227;47.674;19.320;2023-09-18T08:12:01;10.27;;;8.63;;
26578;SDS011;14227;47.674;19.320;2023-09-18T08:14:28;12.77;;;9.02;;
26578;SDS011;14227;47.674;19.320;2023-09-18T08:16:57;13.70;;;8.90;;
26578;SDS011;14227;47.674;19.320;2023-09-18T08:19:25;14.90;;;8.63;;
26578;SDS011;14227;47.674;19.320;2023-09-18T08:21:52;15.65;;;8.77;;
26578;SDS011;14227;47.674;19.320;2023-09-18T08:24:19;18.75;;;8.93;;
26578;SDS011;14227;47.674;19.320;2023-09-18T08:26:46;14.93;;;8.82;;
26578;SDS011;14227;47.674;19.320;2023-09-18T08:29:12;15.00;;;8.40;;
26578;SDS011;14227;47.674;19.320;2023-09-18T08:31:38;13.00;;;7.97;;
26578;SDS011;14227;47.674;19.320;2023-09-18T08:34:04;13.02;;;8.02;;
26578;SDS011;14227;47.674;19.320;2023-09-18T08:36:29;16.42;;;8.35;;
26578;SDS011;14227;47.674;19.320;2023-09-18T08:38:56;9.35;;;8.18;;
26578;SDS011;14227;47.674;19.320;2023-09-18T08:41:23;12.55;;;7.95;;
26578;SDS011;14227;47.674;19.320;2023-09-18T08:43:52;13.55;;;7.28;;
26578;SDS011;14227;47.674;19.320;2023-09-18T08:46:21;9.50;;;7.72;;
26578;SDS011;14227;47.674;19.320;2023-09-18T08:48:48;16.02;;;8.98;;
26578;SDS011;14227;47.674;19.320;2023-09-18T08:51:15;10.07;;;7.07;;
26578;SDS011;14227;47.674;19.320;2023-09-18T08:53:42;8.93;;;7.20;;
26578;SDS011;14227;47.674;19.320;2023-09-18T08:56:08;12.88;;;7.47;;
26578;SDS011;14227;47.674;19.320;2023-09-18T08:58:46;11.43;;;7.22;;
26578;SDS011;14227;47.674;19.320;2023-09-18T09:01:12;12.02;;;7.65;;
26578;SDS011;14227;47.674;19.320;2023-09-18T09:03:39;9.82;;;7.30;;
26578;SDS011;14227;47.674;19.320;2023-09-18T09:06:07;12.10;;;6.97;;
26578;SDS011;14227;47.674;19.320;2023-09-18T09:08:34;16.08;;;7.15;;
26578;SDS011;14227;47.674;19.320;2023-09-18T09:11:00;13.23;;;7.13;;
26578;SDS011;14227;47.674;19.320;2023-09-18T09:13:26;9.05;;;7.15;;
26578;SDS011;14227;47.674;19.320;2023-09-18T09:15:53;15.02;;;7.00;;
26578;SDS011;14227;47.674;19.320;2023-09-18T09:18:21;14.07;;;7.20;;
26578;SDS011;14227;47.674;19.320;2023-09-18T09:23:44;10.48;;;6.70;;
26578;SDS011;14227;47.674;19.320;2023-09-18T09:26:13;18.05;;;6.93;;
26578;SDS011;14227;47.674;19.320;2023-09-18T09:28:42;11.17;;;6.13;;
26578;SDS011;14227;47.674;19.320;2023-09-18T09:31:09;11.38;;;6.50;;
26578;SDS011;14227;47.674;19.320;2023-09-18T09:33:39;12.38;;;6.88;;
26578;SDS011;14227;47.674;19.320;2023-09-18T09:36:18;9.77;;;6.82;;
26578;SDS011;14227;47.674;19.320;2023-09-18T09:38:47;7.40;;;6.07;;
26578;SDS011;14227;47.674;19.320;2023-09-18T09:41:13;10.35;;;5.97;;
26578;SDS011;14227;47.674;19.320;2023-09-18T09:43:41;11.13;;;6.55;;
26578;SDS011;14227;47.674;19.320;2023-09-18T09:46:14;11.80;;;6.65;;
26578;SDS011;14227;47.674;19.320;2023-09-18T09:51:29;8.85;;;6.05;;
26578;SDS011;14227;47.674;19.320;2023-09-18T09:53:54;10.00;;;6.40;;
26578;SDS011;14227;47.674;19.320;2023-09-18T09:56:23;11.60;;;5.60;;
26578;SDS011;14227;47.674;19.320;2023-09-18T09:59:10;13.50;;;6.00;;
26578;SDS011;14227;47.674;19.320;2023-09-18T10:01:37;13.23;;;6.10;;
26578;SDS011;14227;47.674;19.320;2023-09-18T10:04:13;11.25;;;6.78;;
26578;SDS011;14227;47.674;19.320;2023-09-18T10:06:48;11.68;;;6.20;;
26578;SDS011;14227;47.674;19.320;2023-09-18T10:09:23;9.02;;;5.63;;
26578;SDS011;14227;47.674;19.320;2023-09-18T10:11:52;13.13;;;5.80;;
26578;SDS011;14227;47.674;19.320;2023-09-18T10:14:21;16.13;;;7.25;;
26578;SDS011;14227;47.674;19.320;2023-09-18T10:16:56;9.60;;;5.93;;
26578;SDS011;14227;47.674;19.320;2023-09-18T10:19:28;9.27;;;6.32;;
26578;SDS011;14227;47.674;19.320;2023-09-18T10:25:15;12.93;;;6.22;;
26578;SDS011;14227;47.674;19.320;2023-09-18T10:27:47;11.98;;;6.32;;
26578;SDS011;14227;47.674;19.320;2023-09-18T10:30:26;10.00;;;6.05;;
26578;SDS011;14227;47.674;19.320;2023-09-18T10:32:54;8.73;;;6.25;;
26578;SDS011;14227;47.674;19.320;2023-09-18T10:35:22;10.27;;;5.72;;
26578;SDS011;14227;47.674;19.320;2023-09-18T10:37:49;8.70;;;5.85;;
26578;SDS011;14227;47.674;19.320;2023-09-18T10:40:19;9.70;;;5.88;;
26578;SDS011;14227;47.674;19.320;2023-09-18T10:42:46;8.55;;;5.43;;
26578;SDS011;14227;47.674;19.320;2023-09-18T10:45:15;11.48;;;5.32;;
26578;SDS011;14227;47.674;19.320;2023-09-18T10:47:42;10.02;;;5.45;;
26578;SDS011;14227;47.674;19.320;2023-09-18T10:50:13;9.23;;;5.45;;
26578;SDS011;14227;47.674;19.320;2023-09-18T10:52:49;13.27;;;5.82;;
26578;SDS011;14227;47.674;19.320;2023-09-18T10:55:14;11.30;;;5.70;;
26578;SDS011;14227;47.674;19.320;2023-09-18T10:57:54;9.82;;;5.25;;
26578;SDS011;14227;47.674;19.320;2023-09-18T11:00:24;7.13;;;5.32;;
26578;SDS011;14227;47.674;19.320;2023-09-18T11:02:52;11.95;;;5.90;;
26578;SDS011;14227;47.674;19.320;2023-09-18T11:05:34;10.98;;;5.90;;
26578;SDS011;14227;47.674;19.320;2023-09-18T11:10:58;12.07;;;5.53;;
26578;SDS011;14227;47.674;19.320;2023-09-18T11:13:39;10.27;;;5.43;;
26578;SDS011;14227;47.674;19.320;2023-09-18T11:21:33;13.55;;;5.50;;
26578;SDS011;14227;47.674;19.320;2023-09-18T11:24:03;14.93;;;5.80;;
26578;SDS011;14227;47.674;19.320;2023-09-18T11:26:31;7.35;;;5.47;;
26578;SDS011;14227;47.674;19.320;2023-09-18T11:34:14;14.18;;;5.20;;
26578;SDS011;14227;47.674;19.320;2023-09-18T11:36:41;9.60;;;5.32;;
26578;SDS011;14227;47.674;19.320;2023-09-18T11:39:07;10.50;;;5.57;;
26578;SDS011;14227;47.674;19.320;2023-09-18T11:41:34;8.80;;;5.50;;
26578;SDS011;14227;47.674;19.320;2023-09-18T11:46:37;7.00;;;4.97;;
26578;SDS011;14227;47.674;19.320;2023-09-18T11:49:05;8.07;;;4.88;;
26578;SDS011;14227;47.674;19.320;2023-09-18T11:51:35;9.10;;;5.40;;
26578;SDS011;14227;47.674;19.320;2023-09-18T11:54:01;9.77;;;5.70;;
26578;SDS011;14227;47.674;19.320;2023-09-18T11:56:29;10.35;;;5.40;;
26578;SDS011;14227;47.674;19.320;2023-09-18T11:58:55;8.48;;;5.10;;
26578;SDS011;14227;47.674;19.320;2023-09-18T12:01:21;9.40;;;5.43;;
26578;SDS011;14227;47.674;19.320;2023-09-18T12:03:53;7.47;;;5.45;;
26578;SDS011;14227;47.674;19.320;2023-09-18T12:06:20;9.00;;;5.72;;
26578;SDS011;14227;47.674;19.320;2023-09-18T12:08:46;12.40;;;5.28;;
26578;SDS011;14227;47.674;19.320;2023-09-18T12:11:13;8.18;;;5.68;;
26578;SDS011;14227;47.674;19.320;2023-09-18T12:13:44;12.40;;;5.75;;
26578;SDS011;14227;47.674;19.320;2023-09-18T12:16:11;15.52;;;5.75;;
26578;SDS011;14227;47.674;19.320;2023-09-18T12:18:37;7.13;;;5.75;;
26578;SDS011;14227;47.674;19.320;2023-09-18T12:21:09;8.00;;;5.85;;
26578;SDS011;14227;47.674;19.320;2023-09-18T12:23:39;27.05;;;6.13;;
26578;SDS011;14227;47.674;19.320;2023-09-18T12:26:05;17.90;;;6.50;;
26578;SDS011;14227;47.674;19.320;2023-09-18T12:28:35;22.25;;;6.55;;
26578;SDS011;14227;47.674;19.320;2023-09-18T12:31:01;12.20;;;6.05;;
26578;SDS011;14227;47.674;19.320;2023-09-18T12:33:35;7.68;;;5.93;;
26578;SDS011;14227;47.674;19.320;2023-09-18T12:36:02;10.07;;;6.07;;
26578;SDS011;14227;47.674;19.320;2023-09-18T12:38:29;7.38;;;5.85;;
26578;SDS011;14227;47.674;19.320;2023-09-18T12:40:55;7.20;;;5.93;;
26578;SDS011;14227;47.674;19.320;2023-09-18T12:43:25;13.15;;;6.53;;
26578;SDS011;14227;47.674;19.320;2023-09-18T12:45:54;10.25;;;6.55;;
26578;SDS011;14227;47.674;19.320;2023-09-18T12:48:20;10.60;;;6.15;;
26578;SDS011;14227;47.674;19.320;2023-09-18T12:50:51;11.68;;;6.22;;
26578;SDS011;14227;47.674;19.320;2023-09-18T12:53:21;12.30;;;6.72;;
26578;SDS011;14227;47.674;19.320;2023-09-18T12:55:47;8.20;;;6.82;;
26578;SDS011;14227;47.674;19.320;2023-09-18T12:58:18;10.27;;;6.68;;
26578;SDS011;14227;47.674;19.320;2023-09-18T13:00:45;11.48;;;7.30;;
26578;SDS011;14227;47.674;19.320;2023-09-18T13:05:43;15.63;;;7.05;;
26578;SDS011;14227;47.674;19.320;2023-09-18T13:08:09;10.43;;;6.72;;
26578;SDS011;14227;47.674;19.320;2023-09-18T13:10:48;10.73;;;6.70;;
26578;SDS011;14227;47.674;19.320;2023-09-18T13:13:21;9.05;;;6.65;;
26578;SDS011;14227;47.674;19.320;2023-09-18T13:15:47;7.30;;;6.53;;
26578;SDS011;14227;47.674;19.320;2023-09-18T13:18:14;13.60;;;7.28;;
26578;SDS011;14227;47.674;19.320;2023-09-18T13:20:41;8.70;;;6.88;;
26578;SDS011;14227;47.674;19.320;2023-09-18T13:23:07;10.32;;;6.85;;
26578;SDS011;14227;47.674;19.320;2023-09-18T13:25:34;10.52;;;6.82;;
26578;SDS011;14227;47.674;19.320;2023-09-18T13:28:03;16.23;;;7.25;;
26578;SDS011;14227;47.674;19.320;2023-09-18T13:30:32;13.02;;;6.82;;
26578;SDS011;14227;47.674;19.320;2023-09-18T13:33:04;11.43;;;7.35;;
26578;SDS011;14227;47.674;19.320;2023-09-18T13:35:31;9.02;;;6.93;;
26578;SDS011;14227;47.674;19.320;2023-09-18T13:37:58;11.40;;;6.97;;
26578;SDS011;14227;47.674;19.320;2023-09-18T13:40:24;11.02;;;7.10;;
26578;SDS011;14227;47.674;19.320;2023-09-18T13:42:50;13.02;;;7.28;;
26578;SDS011;14227;47.674;19.320;2023-09-18T13:45:16;9.20;;;6.78;;
26578;SDS011;14227;47.674;19.320;2023-09-18T13:47:41;15.25;;;7.68;;
26578;SDS011;14227;47.674;19.320;2023-09-18T13:50:08;13.57;;;7.40;;
26578;SDS011;14227;47.674;19.320;2023-09-18T13:52:35;8.25;;;7.00;;
26578;SDS011;14227;47.674;19.320;2023-09-18T13:55:04;18.08;;;7.47;;
26578;SDS011;14227;47.674;19.320;2023-09-18T13:57:33;18.40;;;7.28;;
26578;SDS011;14227;47.674;19.320;2023-09-18T13:59:59;21.10;;;7.20;;
26578;SDS011;14227;47.674;19.320;2023-09-18T14:02:26;9.27;;;6.85;;
26578;SDS011;14227;47.674;19.320;2023-09-18T14:04:55;8.95;;;6.32;;
26578;SDS011;14227;47.674;19.320;2023-09-18T14:07:21;8.40;;;6.43;;
26578;SDS011;14227;47.674;19.320;2023-09-18T14:09:47;11.45;;;6.45;;
26578;SDS011;14227;47.674;19.320;2023-09-18T14:12:13;9.55;;;6.72;;
26578;SDS011;14227;47.674;19.320;2023-09-18T14:14:40;13.40;;;7.22;;
26578;SDS011;14227;47.674;19.320;2023-09-18T14:17:09;11.60;;;7.10;;
26578;SDS011;14227;47.674;19.320;2023-09-18T14:19:35;9.68;;;6.88;;
26578;SDS011;14227;47.674;19.320;2023-09-18T14:22:05;13.60;;;7.40;;
26578;SDS011;14227;47.674;19.320;2023-09-18T14:24:32;9.57;;;6.75;;
26578;SDS011;14227;47.674;19.320;2023-09-18T14:27:08;9.27;;;6.82;;
26578;SDS011;14227;47.674;19.320;2023-09-18T14:29:33;8.02;;;6.55;;
26578;SDS011;14227;47.674;19.320;2023-09-18T14:31:59;12.93;;;7.57;;
26578;SDS011;14227;47.674;19.320;2023-09-18T14:34:25;13.30;;;7.40;;
26578;SDS011;14227;47.674;19.320;2023-09-18T14:36:51;14.98;;;7.15;;
26578;SDS011;14227;47.674;19.320;2023-09-18T14:39:17;14.38;;;7.20;;
26578;SDS011;14227;47.674;19.320;2023-09-18T14:41:43;11.65;;;7.25;;
26578;SDS011;14227;47.674;19.320;2023-09-18T14:44:09;11.70;;;7.38;;
26578;SDS011;14227;47.674;19.320;2023-09-18T14:46:35;10.38;;;7.57;;